createdAt,value
2023-01-21T00:00:58.376Z,16.22
2023-01-21T00:04:00.487Z,16.21
2023-01-21T00:07:02.613Z,16.20
2023-01-21T00:10:05.012Z,16.17
2023-01-21T00:13:07.074Z,16.18
2023-01-21T00:16:09.727Z,16.16
2023-01-21T00:19:11.866Z,16.16
2023-01-21T00:22:13.946Z,16.14
2023-01-21T00:25:16.057Z,16.14
2023-01-21T00:28:18.870Z,16.11
2023-01-21T00:31:21.114Z,16.10
2023-01-21T00:34:23.274Z,16.07
2023-01-21T00:37:25.502Z,16.07
2023-01-21T00:40:27.693Z,16.06
2023-01-21T00:43:29.992Z,16.04
2023-01-21T00:46:32.326Z,16.02
2023-01-21T00:49:34.609Z,16.02
2023-01-21T00:52:36.811Z,16.01
2023-01-21T00:55:38.850Z,16.00
2023-01-21T00:58:43.435Z,15.98
2023-01-21T01:01:45.720Z,15.96
2023-01-21T01:04:47.785Z,15.95
2023-01-21T01:07:50.545Z,15.96
2023-01-21T01:10:54.803Z,15.92
2023-01-21T01:13:58.175Z,15.91
2023-01-21T01:17:00.263Z,15.89
2023-01-21T01:20:02.473Z,15.89
2023-01-21T01:23:05.544Z,15.86
2023-01-21T01:26:11.659Z,15.86
2023-01-21T01:29:13.975Z,15.85
2023-01-21T01:32:16.078Z,15.85
2023-01-21T01:35:18.122Z,15.83
2023-01-21T01:38:22.309Z,15.82
2023-01-21T01:41:27.808Z,15.80
2023-01-21T01:44:48.858Z,15.78
2023-01-21T01:47:58.261Z,15.77
2023-01-21T01:51:04.083Z,15.76
2023-01-21T01:54:07.896Z,15.73
2023-01-21T01:57:12.743Z,15.72
2023-01-21T02:00:15.845Z,15.72
2023-01-21T02:03:37.142Z,15.70
2023-01-21T02:06:40.334Z,15.70
2023-01-21T02:09:42.553Z,15.68
2023-01-21T02:12:44.924Z,15.66
2023-01-21T02:16:03.682Z,15.63
2023-01-21T02:19:43.049Z,15.63
2023-01-21T02:22:56.821Z,15.60
2023-01-21T02:26:29.018Z,15.59
2023-01-21T02:29:53.076Z,15.57
2023-01-21T02:33:13.599Z,15.57
2023-01-21T02:36:21.600Z,15.56
2023-01-21T02:39:36.087Z,15.56
2023-01-21T02:42:57.696Z,15.54
2023-01-21T02:46:12.649Z,15.53
2023-01-21T02:49:45.727Z,15.51
2023-01-21T02:52:56.253Z,15.49
2023-01-21T02:56:02.652Z,15.47
2023-01-21T02:59:05.865Z,15.47
2023-01-21T03:02:29.324Z,15.46
2023-01-21T03:06:04.886Z,15.44
2023-01-21T03:09:25.418Z,15.44
2023-01-21T03:12:34.197Z,15.42
2023-01-21T03:16:02.127Z,15.41
2023-01-21T03:19:09.784Z,15.39
2023-01-21T03:22:17.682Z,15.39
2023-01-21T03:25:20.643Z,15.36
2023-01-21T03:28:26.305Z,15.36
2023-01-21T03:31:31.977Z,15.36
2023-01-21T03:34:39.490Z,15.32
2023-01-21T03:37:48.477Z,15.31
2023-01-21T03:40:57.113Z,15.29
2023-01-21T03:43:59.580Z,15.30
2023-01-21T03:47:04.621Z,15.29
2023-01-21T03:50:41.892Z,15.27
2023-01-21T03:53:44.766Z,15.26
2023-01-21T03:56:46.859Z,15.24
2023-01-21T03:59:49.031Z,15.24
2023-01-21T04:02:51.108Z,15.24
2023-01-21T04:05:53.221Z,15.23
2023-01-21T04:08:55.277Z,15.19
2023-01-21T04:11:58.520Z,15.21
2023-01-21T04:15:00.633Z,15.18
2023-01-21T04:18:03.045Z,15.17
2023-01-21T04:21:05.139Z,15.16
2023-01-21T04:24:07.483Z,15.14
2023-01-21T04:27:09.529Z,15.13
2023-01-21T04:30:12.056Z,15.12
2023-01-21T04:33:14.564Z,15.10
2023-01-21T04:36:16.710Z,15.11
2023-01-21T04:39:18.908Z,15.08
2023-01-21T04:42:20.979Z,15.06
2023-01-21T04:45:23.431Z,15.06
2023-01-21T04:48:25.548Z,15.03
2023-01-21T04:51:27.611Z,15.03
2023-01-21T04:54:29.764Z,15.03
2023-01-21T04:57:31.901Z,15.01
2023-01-21T05:00:34.013Z,14.99
2023-01-21T05:03:36.178Z,14.99
2023-01-21T05:06:38.283Z,14.97
2023-01-21T05:09:40.780Z,14.97
2023-01-21T05:12:42.957Z,14.94
2023-01-21T05:15:45.115Z,14.96
2023-01-21T05:18:48.299Z,14.93
2023-01-21T05:21:50.543Z,14.92
2023-01-21T05:24:52.605Z,14.89
2023-01-21T05:27:55.401Z,14.88
2023-01-21T05:31:01.700Z,14.87
2023-01-21T05:34:04.164Z,14.86
2023-01-21T05:37:06.276Z,14.86
2023-01-21T05:40:09.078Z,14.85
2023-01-21T05:43:11.150Z,14.83
2023-01-21T05:46:13.304Z,14.83
2023-01-21T05:49:15.375Z,14.82
2023-01-21T05:52:17.479Z,14.82
2023-01-21T05:55:19.580Z,14.81
2023-01-21T05:58:22.589Z,14.80
2023-01-21T06:01:24.967Z,14.89
2023-01-21T06:04:30.559Z,14.96
2023-01-21T06:07:32.766Z,15.00
2023-01-21T06:10:34.949Z,15.04
2023-01-21T06:13:37.003Z,15.10
2023-01-21T06:16:39.135Z,15.13
2023-01-21T06:19:41.220Z,15.18
2023-01-21T06:22:43.282Z,15.26
2023-01-21T06:25:45.378Z,15.33
2023-01-21T06:28:47.546Z,15.40
2023-01-21T06:31:49.797Z,15.51
2023-01-21T06:34:51.983Z,15.60
2023-01-21T06:37:54.109Z,15.71
2023-01-21T06:40:56.172Z,15.78
2023-01-21T06:43:58.192Z,15.90
2023-01-21T06:47:01.410Z,15.98
2023-01-21T06:50:04.116Z,16.00
2023-01-21T06:53:06.159Z,16.07
2023-01-21T06:56:08.221Z,16.16
2023-01-21T06:59:10.597Z,16.20
2023-01-21T07:02:13.419Z,16.24
2023-01-21T07:05:16.210Z,16.29
2023-01-21T07:08:18.621Z,16.40
2023-01-21T07:11:20.713Z,16.45
2023-01-21T07:14:22.770Z,16.43
2023-01-21T07:17:24.851Z,16.43
2023-01-21T07:20:27.024Z,16.51
2023-01-21T07:23:30.313Z,16.62
2023-01-21T07:26:36.140Z,16.63
2023-01-21T07:29:38.308Z,16.63
2023-01-21T07:32:40.414Z,16.66
2023-01-21T07:35:42.493Z,16.71
2023-01-21T07:38:44.862Z,16.79
2023-01-21T07:41:46.936Z,16.86
2023-01-21T07:44:49.103Z,16.86
2023-01-21T07:47:51.739Z,16.87
2023-01-21T07:50:58.210Z,16.95
2023-01-21T07:54:00.349Z,17.06
2023-01-21T07:57:02.404Z,17.14
2023-01-21T08:00:05.056Z,17.10
2023-01-21T08:03:07.218Z,17.11
2023-01-21T08:06:09.329Z,17.16
2023-01-21T08:09:11.612Z,17.24
2023-01-21T08:12:13.783Z,17.32
2023-01-21T08:15:16.270Z,17.30
2023-01-21T08:18:19.042Z,17.28
2023-01-21T08:21:21.151Z,17.32
2023-01-21T08:24:23.215Z,17.44
2023-01-21T08:27:25.433Z,17.51
2023-01-21T08:30:27.551Z,17.51
2023-01-21T08:33:29.583Z,17.50
2023-01-21T08:36:31.672Z,17.56
2023-01-21T08:39:33.802Z,17.68
2023-01-21T08:42:36.179Z,17.74
2023-01-21T08:45:38.285Z,17.76
2023-01-21T08:48:40.569Z,17.74
2023-01-21T08:51:42.762Z,17.78
2023-01-21T08:54:44.894Z,17.82
2023-01-21T08:57:48.364Z,17.85
2023-01-21T09:00:51.663Z,17.91
2023-01-21T09:03:58.425Z,17.98
2023-01-21T09:07:00.488Z,17.99
2023-01-21T09:10:03.899Z,18.09
2023-01-21T09:13:07.359Z,18.11
2023-01-21T09:16:15.374Z,18.12
2023-01-21T09:19:17.963Z,18.10
2023-01-21T09:22:19.966Z,18.18
2023-01-21T09:25:23.297Z,18.22
2023-01-21T09:28:25.517Z,18.29
2023-01-21T09:31:29.504Z,18.33
2023-01-21T09:34:34.003Z,18.20
2023-01-21T09:37:40.537Z,18.27
2023-01-21T09:40:46.018Z,18.37
2023-01-21T09:43:58.651Z,18.35
2023-01-21T09:47:16.080Z,18.34
2023-01-21T09:50:22.348Z,18.38
2023-01-21T09:53:35.846Z,18.50
2023-01-21T09:56:52.007Z,18.54
2023-01-21T10:00:18.917Z,18.53
2023-01-21T10:03:36.454Z,18.51
2023-01-21T10:06:38.609Z,18.61
2023-01-21T10:09:55.258Z,18.64
2023-01-21T10:13:24.030Z,18.63
2023-01-21T10:16:44.624Z,18.64
2023-01-21T10:19:52.376Z,18.64
2023-01-21T10:23:03.773Z,18.68
2023-01-21T10:26:10.099Z,18.73
2023-01-21T10:29:18.375Z,18.71
2023-01-21T10:32:25.434Z,18.68
2023-01-21T10:35:37.983Z,18.69
2023-01-21T10:39:03.119Z,18.72
2023-01-21T10:42:43.591Z,18.78
2023-01-21T10:46:16.431Z,18.71
2023-01-21T10:49:39.840Z,18.64
2023-01-21T10:52:49.107Z,18.65
2023-01-21T10:56:06.087Z,18.72
2023-01-21T10:59:13.835Z,18.76
2023-01-21T11:02:32.456Z,18.74
2023-01-21T11:05:35.079Z,18.73
2023-01-21T11:08:38.665Z,18.76
2023-01-21T11:11:42.855Z,18.84
2023-01-21T11:14:57.620Z,18.86
2023-01-21T11:17:59.898Z,18.86
2023-01-21T11:21:19.970Z,18.95
2023-01-21T11:24:24.018Z,18.80
2023-01-21T11:27:39.905Z,18.82
2023-01-21T11:30:50.976Z,18.81
2023-01-21T11:33:54.582Z,18.74
2023-01-21T11:37:23.034Z,18.73
2023-01-21T11:40:26.025Z,18.80
2023-01-21T11:43:50.830Z,18.95
2023-01-21T11:46:54.845Z,18.96
2023-01-21T11:50:11.696Z,18.99
2023-01-21T11:53:17.556Z,19.08
2023-01-21T11:56:20.695Z,19.20
2023-01-21T11:59:34.375Z,19.27
2023-01-21T12:02:41.416Z,19.35
2023-01-21T12:05:47.925Z,19.30
2023-01-21T12:08:54.250Z,19.30
2023-01-21T12:12:45.763Z,19.29
2023-01-21T12:16:06.871Z,19.63
2023-01-21T12:19:31.889Z,19.88
2023-01-21T12:23:04.717Z,19.54
2023-01-21T12:26:15.782Z,19.57
2023-01-21T12:29:36.267Z,19.59
2023-01-21T12:32:51.130Z,19.44
2023-01-21T12:35:55.986Z,19.51
2023-01-21T12:39:25.794Z,19.50
2023-01-21T12:42:37.303Z,19.41
2023-01-21T12:45:53.448Z,19.37
2023-01-21T12:49:22.681Z,19.36
2023-01-21T12:52:44.861Z,19.30
2023-01-21T12:56:14.370Z,19.32
2023-01-21T12:59:25.219Z,19.37
2023-01-21T13:02:49.338Z,19.36
2023-01-21T13:06:00.527Z,19.29
2023-01-21T13:09:38.437Z,19.31
2023-01-21T13:12:43.878Z,19.32
2023-01-21T13:15:50.639Z,19.35
2023-01-21T13:18:54.469Z,19.38
2023-01-21T13:22:15.862Z,19.39
2023-01-21T13:25:46.436Z,19.43
2023-01-21T13:29:32.175Z,19.47
2023-01-21T13:32:37.092Z,19.40
2023-01-21T13:35:54.130Z,19.41
2023-01-21T13:39:11.500Z,19.40
2023-01-21T13:42:19.695Z,19.43
2023-01-21T13:45:51.846Z,19.40
2023-01-21T13:49:34.349Z,19.40
2023-01-21T13:52:39.487Z,19.35
2023-01-21T13:56:05.699Z,19.16
2023-01-21T13:59:16.625Z,19.25
2023-01-21T14:02:29.043Z,19.38
2023-01-21T14:05:50.118Z,19.35
2023-01-21T14:09:22.847Z,19.36
2023-01-21T14:12:48.520Z,19.36
2023-01-21T14:16:33.113Z,19.30
2023-01-21T14:19:41.062Z,19.25
2023-01-21T14:23:03.508Z,19.20
2023-01-21T14:26:33.401Z,19.18
2023-01-21T14:29:45.019Z,19.11
2023-01-21T14:32:53.111Z,19.07
2023-01-21T14:36:08.443Z,19.02
2023-01-21T14:39:19.916Z,18.97
2023-01-21T14:42:41.026Z,18.86
2023-01-21T14:45:56.516Z,18.85
2023-01-21T14:49:00.699Z,18.05
2023-01-21T14:52:03.988Z,17.97
2023-01-21T14:55:33.445Z,18.29
2023-01-21T14:58:36.892Z,18.46
2023-01-21T15:01:45.473Z,18.52
2023-01-21T15:04:57.556Z,18.49
2023-01-21T15:08:24.695Z,18.42
2023-01-21T15:11:37.068Z,18.42
2023-01-21T15:14:41.734Z,18.41
2023-01-21T15:17:47.070Z,18.42
2023-01-21T15:20:58.093Z,18.38
2023-01-21T15:24:19.134Z,18.38
2023-01-21T15:27:25.821Z,18.38
2023-01-21T15:30:45.093Z,18.34
2023-01-21T15:33:55.134Z,18.35
2023-01-21T15:36:58.065Z,18.29
2023-01-21T15:40:33.414Z,18.29
2023-01-21T15:43:55.112Z,18.28
2023-01-21T15:47:33.487Z,18.26
2023-01-21T15:51:06.230Z,18.20
2023-01-21T15:54:20.722Z,18.18
2023-01-21T15:57:35.495Z,18.18
2023-01-21T16:00:55.408Z,18.15
2023-01-21T16:04:30.441Z,18.13
2023-01-21T16:08:02.361Z,18.15
2023-01-21T16:11:16.762Z,18.09
2023-01-21T16:14:37.710Z,18.06
2023-01-21T16:17:56.276Z,18.06
2023-01-21T16:21:00.728Z,18.05
2023-01-21T16:24:24.895Z,18.02
2023-01-21T16:27:30.968Z,18.00
2023-01-21T16:30:33.184Z,18.06
2023-01-21T16:33:35.385Z,18.09
2023-01-21T16:36:38.736Z,18.11
2023-01-21T16:39:44.668Z,18.11
2023-01-21T16:42:46.983Z,18.11
2023-01-21T16:45:54.352Z,18.11
2023-01-21T16:48:58.419Z,18.06
2023-01-21T16:52:02.781Z,18.06
2023-01-21T16:55:19.700Z,18.06
2023-01-21T16:58:28.673Z,17.99
2023-01-21T17:01:31.093Z,17.99
2023-01-21T17:04:33.570Z,17.98
2023-01-21T17:07:42.348Z,17.95
2023-01-21T17:11:00.488Z,17.97
2023-01-21T17:14:09.301Z,18.00
2023-01-21T17:17:21.185Z,18.02
2023-01-21T17:20:41.632Z,17.99
2023-01-21T17:23:43.811Z,17.98
2023-01-21T17:26:51.453Z,17.96
2023-01-21T17:29:53.616Z,17.93
2023-01-21T17:32:58.307Z,17.91
2023-01-21T17:36:10.131Z,17.88
2023-01-21T17:39:13.139Z,17.85
2023-01-21T17:42:23.702Z,17.87
2023-01-21T17:45:30.249Z,17.84
2023-01-21T17:48:39.197Z,17.68
2023-01-21T17:51:43.124Z,17.68
2023-01-21T17:54:48.463Z,17.65
2023-01-21T17:57:51.829Z,17.65
2023-01-21T18:00:53.902Z,17.66
2023-01-21T18:03:56.753Z,17.67
2023-01-21T18:06:58.870Z,17.64
2023-01-21T18:10:02.706Z,17.60
2023-01-21T18:13:04.799Z,17.55
2023-01-21T18:16:07.170Z,17.55
2023-01-21T18:19:26.577Z,17.54
2023-01-21T18:22:31.816Z,17.51
2023-01-21T18:25:34.023Z,17.48
2023-01-21T18:28:36.182Z,17.48
2023-01-21T18:31:38.594Z,17.47
2023-01-21T18:34:41.067Z,17.45
2023-01-21T18:37:43.121Z,17.41
2023-01-21T18:40:45.899Z,17.40
2023-01-21T18:43:48.051Z,17.44
2023-01-21T18:46:50.187Z,17.43
2023-01-21T18:49:52.463Z,17.44
2023-01-21T18:52:55.168Z,17.40
2023-01-21T18:55:58.005Z,17.40
2023-01-21T18:59:00.639Z,17.37
2023-01-21T19:02:03.592Z,17.33
2023-01-21T19:05:06.131Z,17.32
2023-01-21T19:08:15.018Z,17.30
2023-01-21T19:11:18.156Z,17.28
2023-01-21T19:14:20.429Z,17.24
2023-01-21T19:17:27.484Z,17.25
2023-01-21T19:20:30.036Z,17.24
2023-01-21T19:23:32.212Z,17.22
2023-01-21T19:26:35.425Z,17.24
2023-01-21T19:29:38.007Z,17.20
2023-01-21T19:32:40.478Z,17.17
2023-01-21T19:35:46.210Z,17.15
2023-01-21T19:38:54.689Z,17.13
2023-01-21T19:42:07.659Z,17.11
2023-01-21T19:45:10.776Z,17.08
2023-01-21T19:48:14.612Z,17.08
2023-01-21T19:51:16.843Z,17.07
2023-01-21T19:54:18.923Z,17.05
2023-01-21T19:57:21.301Z,17.02
2023-01-21T20:00:26.594Z,17.01
2023-01-21T20:03:30.521Z,17.00
2023-01-21T20:06:37.945Z,16.98
2023-01-21T20:09:40.106Z,16.98
2023-01-21T20:12:43.969Z,16.95
2023-01-21T20:15:48.186Z,16.95
2023-01-21T20:18:50.685Z,16.91
2023-01-21T20:22:02.183Z,16.91
2023-01-21T20:25:05.095Z,16.90
2023-01-21T20:28:20.115Z,16.89
2023-01-21T20:31:22.316Z,16.89
2023-01-21T20:34:27.566Z,16.87
2023-01-21T20:37:29.862Z,16.86
2023-01-21T20:40:31.971Z,16.84
2023-01-21T20:43:34.096Z,16.87
2023-01-21T20:46:36.339Z,16.85
2023-01-21T20:49:38.424Z,16.82
2023-01-21T20:52:40.458Z,16.82
2023-01-21T20:55:45.567Z,16.81
2023-01-21T20:58:48.249Z,16.79
2023-01-21T21:01:51.573Z,16.78
2023-01-21T21:04:54.064Z,16.76
2023-01-21T21:07:56.420Z,16.77
2023-01-21T21:10:58.455Z,16.76
2023-01-21T21:14:01.865Z,16.74
2023-01-21T21:17:05.630Z,16.74
2023-01-21T21:20:16.958Z,16.73
2023-01-21T21:23:19.157Z,16.71
2023-01-21T21:26:23.838Z,16.71
2023-01-21T21:29:25.944Z,16.70
2023-01-21T21:32:28.004Z,16.69
2023-01-21T21:35:36.025Z,16.67
2023-01-21T21:38:38.093Z,16.69
2023-01-21T21:41:59.031Z,16.65
2023-01-21T21:45:01.307Z,16.64
2023-01-21T21:48:23.103Z,16.64
2023-01-21T21:51:25.843Z,16.62
2023-01-21T21:54:28.152Z,16.60
2023-01-21T21:57:31.788Z,16.60
2023-01-21T22:00:33.879Z,16.61
2023-01-21T22:03:36.167Z,16.59
2023-01-21T22:06:38.737Z,16.59
2023-01-21T22:09:40.769Z,16.57
2023-01-21T22:12:42.844Z,16.57
2023-01-21T22:16:02.211Z,16.54
2023-01-21T22:19:04.454Z,16.54
2023-01-21T22:22:06.671Z,16.49
2023-01-21T22:25:11.718Z,16.49
2023-01-21T22:28:13.807Z,16.49
2023-01-21T22:31:19.147Z,16.47
2023-01-21T22:34:21.441Z,16.48
2023-01-21T22:37:23.591Z,16.47
2023-01-21T22:40:25.736Z,16.45
2023-01-21T22:43:27.985Z,16.43
2023-01-21T22:46:30.279Z,16.42
2023-01-21T22:49:32.513Z,16.39
2023-01-21T22:52:34.760Z,16.39
2023-01-21T22:55:38.096Z,16.37
2023-01-21T22:58:43.087Z,16.36
2023-01-21T23:01:45.571Z,16.34
2023-01-21T23:04:47.689Z,16.32
2023-01-21T23:07:49.755Z,16.33
2023-01-21T23:11:01.440Z,16.32
2023-01-21T23:14:03.617Z,16.29
2023-01-21T23:17:05.720Z,16.28
2023-01-21T23:20:09.055Z,16.28
2023-01-21T23:23:12.156Z,16.26
2023-01-21T23:26:15.095Z,16.25
2023-01-21T23:29:17.138Z,16.22
2023-01-21T23:32:19.192Z,16.22
2023-01-21T23:35:21.571Z,16.20
2023-01-21T23:38:23.699Z,16.20
2023-01-21T23:41:25.817Z,16.18
2023-01-21T23:44:27.842Z,16.18
2023-01-21T23:47:29.946Z,16.16
2023-01-21T23:50:32.043Z,16.15
2023-01-21T23:53:34.800Z,16.13
2023-01-21T23:56:37.148Z,16.12
2023-01-21T23:59:39.658Z,16.11
